sensor_id;sensor_type;location;lat;lon;timestamp;P1;durP1;ratioP1;P2;durP2;ratioP2
46719;SDS011;32452;51.382;-0.002;2023-07-31T00:00:26;15.82;;;5.43;;
46719;SDS011;32452;51.382;-0.002;2023-07-31T00:03:12;14.25;;;4.40;;
46719;SDS011;32452;51.382;-0.002;2023-07-31T00:05:58;13.43;;;4.05;;
46719;SDS011;32452;51.382;-0.002;2023-07-31T00:08:43;15.93;;;4.95;;
46719;SDS011;32452;51.382;-0.002;2023-07-31T00:11:28;14.05;;;4.57;;
46719;SDS011;32452;51.382;-0.002;2023-07-31T00:14:14;16.02;;;4.55;;
46719;SDS011;32452;51.382;-0.002;2023-07-31T00:17:01;13.13;;;4.22;;
46719;SDS011;32452;51.382;-0.002;2023-07-31T00:19:46;12.85;;;3.90;;
46719;SDS011;32452;51.382;-0.002;2023-07-31T00:22:34;12.88;;;3.45;;
46719;SDS011;32452;51.382;-0.002;2023-07-31T00:25:21;12.75;;;3.83;;
46719;SDS011;32452;51.382;-0.002;2023-07-31T00:28:07;12.93;;;4.28;;
46719;SDS011;32452;51.382;-0.002;2023-07-31T00:30:53;7.22;;;2.90;;
46719;SDS011;32452;51.382;-0.002;2023-07-31T00:33:38;7.22;;;2.72;;
46719;SDS011;32452;51.382;-0.002;2023-07-31T00:36:24;6.32;;;2.72;;
46719;SDS011;32452;51.382;-0.002;2023-07-31T00:39:10;9.35;;;2.60;;
46719;SDS011;32452;51.382;-0.002;2023-07-31T00:41:55;5.78;;;2.63;;
46719;SDS011;32452;51.382;-0.002;2023-07-31T00:44:41;5.10;;;2.42;;
46719;SDS011;32452;51.382;-0.002;2023-07-31T00:47:27;8.45;;;2.38;;
46719;SDS011;32452;51.382;-0.002;2023-07-31T00:50:12;9.25;;;2.20;;
46719;SDS011;32452;51.382;-0.002;2023-07-31T00:52:59;5.53;;;1.98;;
46719;SDS011;32452;51.382;-0.002;2023-07-31T00:55:44;8.50;;;1.85;;
46719;SDS011;32452;51.382;-0.002;2023-07-31T00:58:30;7.05;;;2.00;;
46719;SDS011;32452;51.382;-0.002;2023-07-31T01:01:16;5.22;;;1.70;;
46719;SDS011;32452;51.382;-0.002;2023-07-31T01:04:01;5.72;;;1.63;;
46719;SDS011;32452;51.382;-0.002;2023-07-31T01:09:45;4.05;;;1.38;;
46719;SDS011;32452;51.382;-0.002;2023-07-31T01:12:38;4.28;;;1.02;;
46719;SDS011;32452;51.382;-0.002;2023-07-31T01:15:23;5.82;;;1.40;;
46719;SDS011;32452;51.382;-0.002;2023-07-31T01:18:09;4.03;;;1.45;;
46719;SDS011;32452;51.382;-0.002;2023-07-31T01:20:57;1.92;;;0.90;;
46719;SDS011;32452;51.382;-0.002;2023-07-31T01:26:58;2.72;;;0.98;;
46719;SDS011;32452;51.382;-0.002;2023-07-31T01:30:03;2.95;;;1.20;;
46719;SDS011;32452;51.382;-0.002;2023-07-31T01:32:57;3.35;;;1.20;;
46719;SDS011;32452;51.382;-0.002;2023-07-31T01:35:46;2.70;;;1.30;;
46719;SDS011;32452;51.382;-0.002;2023-07-31T01:38:33;3.95;;;1.38;;
46719;SDS011;32452;51.382;-0.002;2023-07-31T01:41:19;1.48;;;1.08;;
46719;SDS011;32452;51.382;-0.002;2023-07-31T01:44:05;5.18;;;1.33;;
46719;SDS011;32452;51.382;-0.002;2023-07-31T01:46:50;2.38;;;1.15;;
46719;SDS011;32452;51.382;-0.002;2023-07-31T01:49:36;4.45;;;1.20;;
46719;SDS011;32452;51.382;-0.002;2023-07-31T01:52:22;5.38;;;1.27;;
46719;SDS011;32452;51.382;-0.002;2023-07-31T01:55:07;4.30;;;1.13;;
46719;SDS011;32452;51.382;-0.002;2023-07-31T01:57:53;3.97;;;1.30;;
46719;SDS011;32452;51.382;-0.002;2023-07-31T02:00:39;3.45;;;1.63;;
46719;SDS011;32452;51.382;-0.002;2023-07-31T02:03:24;5.03;;;1.45;;
46719;SDS011;32452;51.382;-0.002;2023-07-31T02:06:10;3.90;;;1.45;;
46719;SDS011;32452;51.382;-0.002;2023-07-31T02:08:56;2.95;;;1.33;;
46719;SDS011;32452;51.382;-0.002;2023-07-31T02:11:41;4.13;;;1.67;;
46719;SDS011;32452;51.382;-0.002;2023-07-31T02:14:27;2.83;;;1.50;;
46719;SDS011;32452;51.382;-0.002;2023-07-31T02:17:13;4.97;;;1.80;;
46719;SDS011;32452;51.382;-0.002;2023-07-31T02:19:58;5.20;;;2.25;;
46719;SDS011;32452;51.382;-0.002;2023-07-31T02:22:44;6.30;;;1.80;;
46719;SDS011;32452;51.382;-0.002;2023-07-31T02:25:30;5.13;;;1.70;;
46719;SDS011;32452;51.382;-0.002;2023-07-31T02:28:18;6.10;;;1.40;;
46719;SDS011;32452;51.382;-0.002;2023-07-31T02:31:03;4.00;;;1.38;;
46719;SDS011;32452;51.382;-0.002;2023-07-31T02:33:49;4.85;;;1.38;;
46719;SDS011;32452;51.382;-0.002;2023-07-31T02:36:35;4.82;;;1.55;;
46719;SDS011;32452;51.382;-0.002;2023-07-31T02:39:21;3.70;;;1.45;;
46719;SDS011;32452;51.382;-0.002;2023-07-31T02:42:06;4.60;;;1.48;;
46719;SDS011;32452;51.382;-0.002;2023-07-31T02:44:52;6.43;;;1.90;;
46719;SDS011;32452;51.382;-0.002;2023-07-31T02:47:41;4.60;;;2.55;;
46719;SDS011;32452;51.382;-0.002;2023-07-31T02:50:26;4.55;;;1.50;;
46719;SDS011;32452;51.382;-0.002;2023-07-31T02:53:14;5.50;;;2.10;;
46719;SDS011;32452;51.382;-0.002;2023-07-31T02:56:00;7.65;;;1.90;;
46719;SDS011;32452;51.382;-0.002;2023-07-31T02:58:46;4.43;;;1.40;;
46719;SDS011;32452;51.382;-0.002;2023-07-31T03:01:31;4.90;;;2.13;;
46719;SDS011;32452;51.382;-0.002;2023-07-31T03:04:17;6.13;;;1.65;;
46719;SDS011;32452;51.382;-0.002;2023-07-31T03:07:03;8.05;;;3.03;;
46719;SDS011;32452;51.382;-0.002;2023-07-31T03:09:49;6.65;;;1.60;;
46719;SDS011;32452;51.382;-0.002;2023-07-31T03:12:34;6.95;;;1.55;;
46719;SDS011;32452;51.382;-0.002;2023-07-31T03:15:20;3.38;;;1.80;;
46719;SDS011;32452;51.382;-0.002;2023-07-31T03:18:05;3.45;;;1.50;;
46719;SDS011;32452;51.382;-0.002;2023-07-31T03:20:51;3.70;;;1.40;;
46719;SDS011;32452;51.382;-0.002;2023-07-31T03:23:36;4.55;;;1.75;;
46719;SDS011;32452;51.382;-0.002;2023-07-31T03:26:22;3.50;;;1.48;;
46719;SDS011;32452;51.382;-0.002;2023-07-31T03:29:08;2.63;;;1.30;;
46719;SDS011;32452;51.382;-0.002;2023-07-31T03:31:53;4.25;;;1.35;;
46719;SDS011;32452;51.382;-0.002;2023-07-31T03:34:38;3.42;;;1.13;;
46719;SDS011;32452;51.382;-0.002;2023-07-31T03:37:24;3.65;;;1.05;;
46719;SDS011;32452;51.382;-0.002;2023-07-31T03:40:11;3.35;;;1.20;;
46719;SDS011;32452;51.382;-0.002;2023-07-31T03:42:56;3.15;;;1.13;;
46719;SDS011;32452;51.382;-0.002;2023-07-31T03:45:42;4.03;;;1.10;;
46719;SDS011;32452;51.382;-0.002;2023-07-31T03:48:28;2.58;;;1.20;;
46719;SDS011;32452;51.382;-0.002;2023-07-31T03:51:14;5.05;;;1.20;;
46719;SDS011;32452;51.382;-0.002;2023-07-31T03:53:59;5.78;;;1.13;;
46719;SDS011;32452;51.382;-0.002;2023-07-31T03:56:45;2.53;;;1.00;;
46719;SDS011;32452;51.382;-0.002;2023-07-31T03:59:31;4.40;;;1.02;;
46719;SDS011;32452;51.382;-0.002;2023-07-31T04:02:16;3.65;;;1.08;;
46719;SDS011;32452;51.382;-0.002;2023-07-31T04:05:03;5.28;;;1.23;;
46719;SDS011;32452;51.382;-0.002;2023-07-31T04:07:49;6.97;;;1.60;;
46719;SDS011;32452;51.382;-0.002;2023-07-31T04:10:34;1.95;;;1.23;;
46719;SDS011;32452;51.382;-0.002;2023-07-31T04:13:21;3.05;;;1.15;;
46719;SDS011;32452;51.382;-0.002;2023-07-31T04:16:07;2.53;;;1.20;;
46719;SDS011;32452;51.382;-0.002;2023-07-31T04:18:53;3.13;;;1.48;;
46719;SDS011;32452;51.382;-0.002;2023-07-31T04:21:38;1.25;;;1.00;;
46719;SDS011;32452;51.382;-0.002;2023-07-31T04:24:24;5.07;;;1.33;;
46719;SDS011;32452;51.382;-0.002;2023-07-31T04:27:10;3.67;;;1.35;;
46719;SDS011;32452;51.382;-0.002;2023-07-31T04:29:55;2.60;;;1.10;;
46719;SDS011;32452;51.382;-0.002;2023-07-31T04:32:41;2.50;;;1.10;;
46719;SDS011;32452;51.382;-0.002;2023-07-31T04:35:27;4.00;;;1.70;;
46719;SDS011;32452;51.382;-0.002;2023-07-31T04:38:12;2.83;;;1.35;;
46719;SDS011;32452;51.382;-0.002;2023-07-31T04:40:58;5.18;;;2.33;;
46719;SDS011;32452;51.382;-0.002;2023-07-31T04:43:43;2.38;;;1.30;;
46719;SDS011;32452;51.382;-0.002;2023-07-31T04:46:29;4.38;;;1.60;;
46719;SDS011;32452;51.382;-0.002;2023-07-31T04:49:15;4.97;;;1.35;;
46719;SDS011;32452;51.382;-0.002;2023-07-31T04:52:00;3.95;;;1.20;;
46719;SDS011;32452;51.382;-0.002;2023-07-31T04:54:46;1.83;;;1.33;;
46719;SDS011;32452;51.382;-0.002;2023-07-31T04:57:32;1.95;;;1.30;;
46719;SDS011;32452;51.382;-0.002;2023-07-31T05:00:18;4.10;;;1.27;;
46719;SDS011;32452;51.382;-0.002;2023-07-31T05:03:03;3.60;;;1.38;;
46719;SDS011;32452;51.382;-0.002;2023-07-31T05:05:50;3.03;;;1.20;;
46719;SDS011;32452;51.382;-0.002;2023-07-31T05:08:36;2.60;;;1.30;;
46719;SDS011;32452;51.382;-0.002;2023-07-31T05:11:21;3.72;;;1.33;;
46719;SDS011;32452;51.382;-0.002;2023-07-31T05:14:07;1.85;;;1.25;;
46719;SDS011;32452;51.382;-0.002;2023-07-31T05:16:52;3.50;;;1.33;;
46719;SDS011;32452;51.382;-0.002;2023-07-31T05:19:38;4.15;;;1.50;;
46719;SDS011;32452;51.382;-0.002;2023-07-31T05:22:23;2.42;;;1.17;;
46719;SDS011;32452;51.382;-0.002;2023-07-31T05:25:09;3.60;;;1.73;;
46719;SDS011;32452;51.382;-0.002;2023-07-31T05:27:55;3.83;;;1.65;;
46719;SDS011;32452;51.382;-0.002;2023-07-31T05:30:41;4.93;;;1.50;;
46719;SDS011;32452;51.382;-0.002;2023-07-31T05:33:26;4.00;;;1.23;;
46719;SDS011;32452;51.382;-0.002;2023-07-31T05:36:12;4.90;;;1.40;;
46719;SDS011;32452;51.382;-0.002;2023-07-31T05:38:57;3.53;;;1.20;;
46719;SDS011;32452;51.382;-0.002;2023-07-31T05:41:43;2.75;;;0.90;;
46719;SDS011;32452;51.382;-0.002;2023-07-31T05:44:28;3.80;;;1.10;;
46719;SDS011;32452;51.382;-0.002;2023-07-31T05:47:15;5.22;;;1.23;;
46719;SDS011;32452;51.382;-0.002;2023-07-31T05:50:00;2.42;;;1.08;;
46719;SDS011;32452;51.382;-0.002;2023-07-31T05:52:46;4.57;;;1.60;;
46719;SDS011;32452;51.382;-0.002;2023-07-31T05:55:32;4.00;;;1.15;;
46719;SDS011;32452;51.382;-0.002;2023-07-31T05:58:18;4.05;;;1.23;;
46719;SDS011;32452;51.382;-0.002;2023-07-31T06:01:03;6.80;;;2.13;;
46719;SDS011;32452;51.382;-0.002;2023-07-31T06:03:49;5.85;;;1.30;;
46719;SDS011;32452;51.382;-0.002;2023-07-31T06:06:34;5.45;;;1.50;;
46719;SDS011;32452;51.382;-0.002;2023-07-31T06:09:20;3.78;;;1.23;;
46719;SDS011;32452;51.382;-0.002;2023-07-31T06:12:06;3.47;;;1.17;;
46719;SDS011;32452;51.382;-0.002;2023-07-31T06:14:51;5.47;;;1.42;;
46719;SDS011;32452;51.382;-0.002;2023-07-31T06:17:37;2.83;;;1.40;;
46719;SDS011;32452;51.382;-0.002;2023-07-31T06:20:23;3.47;;;1.55;;
46719;SDS011;32452;51.382;-0.002;2023-07-31T06:23:09;4.15;;;1.50;;
46719;SDS011;32452;51.382;-0.002;2023-07-31T06:25:55;2.13;;;1.10;;
46719;SDS011;32452;51.382;-0.002;2023-07-31T06:28:41;4.43;;;1.27;;
46719;SDS011;32452;51.382;-0.002;2023-07-31T06:31:27;4.50;;;1.27;;
46719;SDS011;32452;51.382;-0.002;2023-07-31T06:34:13;4.20;;;1.40;;
46719;SDS011;32452;51.382;-0.002;2023-07-31T06:36:59;5.70;;;1.42;;
46719;SDS011;32452;51.382;-0.002;2023-07-31T06:39:44;4.65;;;1.27;;
46719;SDS011;32452;51.382;-0.002;2023-07-31T06:42:30;3.90;;;1.20;;
46719;SDS011;32452;51.382;-0.002;2023-07-31T06:45:15;3.63;;;1.38;;
46719;SDS011;32452;51.382;-0.002;2023-07-31T06:48:01;4.55;;;1.45;;
46719;SDS011;32452;51.382;-0.002;2023-07-31T06:50:47;5.93;;;1.40;;
46719;SDS011;32452;51.382;-0.002;2023-07-31T06:53:32;5.55;;;1.23;;
46719;SDS011;32452;51.382;-0.002;2023-07-31T06:56:18;4.40;;;1.50;;
46719;SDS011;32452;51.382;-0.002;2023-07-31T06:59:04;7.13;;;1.42;;
46719;SDS011;32452;51.382;-0.002;2023-07-31T07:01:49;5.65;;;1.10;;
46719;SDS011;32452;51.382;-0.002;2023-07-31T07:04:35;2.17;;;0.95;;
46719;SDS011;32452;51.382;-0.002;2023-07-31T07:07:22;2.50;;;0.90;;
46719;SDS011;32452;51.382;-0.002;2023-07-31T07:10:08;6.68;;;1.75;;
46719;SDS011;32452;51.382;-0.002;2023-07-31T07:12:54;6.32;;;1.58;;
46719;SDS011;32452;51.382;-0.002;2023-07-31T07:15:40;3.88;;;1.10;;
46719;SDS011;32452;51.382;-0.002;2023-07-31T07:18:25;4.32;;;1.38;;
46719;SDS011;32452;51.382;-0.002;2023-07-31T07:21:11;3.53;;;1.05;;
46719;SDS011;32452;51.382;-0.002;2023-07-31T07:24:00;5.65;;;1.23;;
46719;SDS011;32452;51.382;-0.002;2023-07-31T07:26:46;2.72;;;1.30;;
46719;SDS011;32452;51.382;-0.002;2023-07-31T07:29:33;2.63;;;1.23;;
46719;SDS011;32452;51.382;-0.002;2023-07-31T07:32:20;3.88;;;1.45;;
46719;SDS011;32452;51.382;-0.002;2023-07-31T07:35:06;1.92;;;1.02;;
46719;SDS011;32452;51.382;-0.002;2023-07-31T07:37:52;2.90;;;1.30;;
46719;SDS011;32452;51.382;-0.002;2023-07-31T07:40:41;5.47;;;1.25;;
46719;SDS011;32452;51.382;-0.002;2023-07-31T07:43:27;6.13;;;1.58;;
46719;SDS011;32452;51.382;-0.002;2023-07-31T07:46:12;3.13;;;1.52;;
46719;SDS011;32452;51.382;-0.002;2023-07-31T07:48:58;3.42;;;1.15;;
46719;SDS011;32452;51.382;-0.002;2023-07-31T07:51:43;4.75;;;1.70;;
46719;SDS011;32452;51.382;-0.002;2023-07-31T07:54:29;4.28;;;1.20;;
46719;SDS011;32452;51.382;-0.002;2023-07-31T07:57:16;6.55;;;1.30;;
46719;SDS011;32452;51.382;-0.002;2023-07-31T08:00:02;3.25;;;1.17;;
46719;SDS011;32452;51.382;-0.002;2023-07-31T08:02:48;3.33;;;1.02;;
46719;SDS011;32452;51.382;-0.002;2023-07-31T08:05:33;5.00;;;1.45;;
46719;SDS011;32452;51.382;-0.002;2023-07-31T08:08:19;3.38;;;1.50;;
46719;SDS011;32452;51.382;-0.002;2023-07-31T08:11:04;5.22;;;1.92;;
46719;SDS011;32452;51.382;-0.002;2023-07-31T08:13:50;5.07;;;1.80;;
46719;SDS011;32452;51.382;-0.002;2023-07-31T08:16:35;6.20;;;2.00;;
46719;SDS011;32452;51.382;-0.002;2023-07-31T08:19:22;4.25;;;1.85;;
46719;SDS011;32452;51.382;-0.002;2023-07-31T08:22:07;3.80;;;1.60;;
46719;SDS011;32452;51.382;-0.002;2023-07-31T08:24:53;6.05;;;1.60;;
46719;SDS011;32452;51.382;-0.002;2023-07-31T08:27:42;7.75;;;2.25;;
46719;SDS011;32452;51.382;-0.002;2023-07-31T08:30:28;4.43;;;1.92;;
46719;SDS011;32452;51.382;-0.002;2023-07-31T08:33:14;5.38;;;2.47;;
46719;SDS011;32452;51.382;-0.002;2023-07-31T08:35:59;4.18;;;1.50;;
46719;SDS011;32452;51.382;-0.002;2023-07-31T08:38:46;6.80;;;1.67;;
46719;SDS011;32452;51.382;-0.002;2023-07-31T08:41:36;3.60;;;1.40;;
46719;SDS011;32452;51.382;-0.002;2023-07-31T08:44:23;4.15;;;1.60;;
46719;SDS011;32452;51.382;-0.002;2023-07-31T08:47:09;4.50;;;1.65;;
46719;SDS011;32452;51.382;-0.002;2023-07-31T08:49:55;4.18;;;1.70;;
46719;SDS011;32452;51.382;-0.002;2023-07-31T08:52:42;5.13;;;1.90;;
46719;SDS011;32452;51.382;-0.002;2023-07-31T08:55:28;3.40;;;1.60;;
46719;SDS011;32452;51.382;-0.002;2023-07-31T08:58:15;4.53;;;1.73;;
46719;SDS011;32452;51.382;-0.002;2023-07-31T09:01:03;3.10;;;1.88;;
46719;SDS011;32452;51.382;-0.002;2023-07-31T09:03:50;2.95;;;1.60;;
46719;SDS011;32452;51.382;-0.002;2023-07-31T09:06:37;2.47;;;1.60;;
46719;SDS011;32452;51.382;-0.002;2023-07-31T09:09:24;4.50;;;2.03;;
46719;SDS011;32452;51.382;-0.002;2023-07-31T09:12:10;3.88;;;1.98;;
46719;SDS011;32452;51.382;-0.002;2023-07-31T09:14:57;3.67;;;1.70;;
46719;SDS011;32452;51.382;-0.002;2023-07-31T09:17:44;3.55;;;1.42;;
46719;SDS011;32452;51.382;-0.002;2023-07-31T09:20:30;4.05;;;1.95;;
46719;SDS011;32452;51.382;-0.002;2023-07-31T09:23:16;1.75;;;1.35;;
46719;SDS011;32452;51.382;-0.002;2023-07-31T09:26:02;2.05;;;1.42;;
46719;SDS011;32452;51.382;-0.002;2023-07-31T09:28:47;6.00;;;1.40;;
46719;SDS011;32452;51.382;-0.002;2023-07-31T09:31:43;3.67;;;1.33;;
46719;SDS011;32452;51.382;-0.002;2023-07-31T09:34:47;5.78;;;1.75;;
46719;SDS011;32452;51.382;-0.002;2023-07-31T09:37:32;3.13;;;1.17;;
46719;SDS011;32452;51.382;-0.002;2023-07-31T09:40:28;2.30;;;1.00;;
46719;SDS011;32452;51.382;-0.002;2023-07-31T09:43:19;2.75;;;1.23;;
46719;SDS011;32452;51.382;-0.002;2023-07-31T09:46:05;1.95;;;1.20;;
46719;SDS011;32452;51.382;-0.002;2023-07-31T09:49:08;2.85;;;1.20;;
46719;SDS011;32452;51.382;-0.002;2023-07-31T09:51:55;5.13;;;2.35;;
46719;SDS011;32452;51.382;-0.002;2023-07-31T09:54:41;1.73;;;0.93;;
46719;SDS011;32452;51.382;-0.002;2023-07-31T09:57:26;2.33;;;0.82;;
46719;SDS011;32452;51.382;-0.002;2023-07-31T10:00:13;1.90;;;1.05;;
46719;SDS011;32452;51.382;-0.002;2023-07-31T10:03:01;1.73;;;0.88;;
46719;SDS011;32452;51.382;-0.002;2023-07-31T10:05:50;1.98;;;0.70;;
46719;SDS011;32452;51.382;-0.002;2023-07-31T10:08:38;3.30;;;0.80;;
46719;SDS011;32452;51.382;-0.002;2023-07-31T10:11:25;2.40;;;1.10;;
46719;SDS011;32452;51.382;-0.002;2023-07-31T10:14:14;1.67;;;1.00;;
46719;SDS011;32452;51.382;-0.002;2023-07-31T10:17:01;4.18;;;0.98;;
46719;SDS011;32452;51.382;-0.002;2023-07-31T10:19:47;5.75;;;1.20;;
46719;SDS011;32452;51.382;-0.002;2023-07-31T10:22:34;3.08;;;1.15;;
46719;SDS011;32452;51.382;-0.002;2023-07-31T10:25:20;3.03;;;1.20;;
46719;SDS011;32452;51.382;-0.002;2023-07-31T10:28:07;3.47;;;1.30;;
46719;SDS011;32452;51.382;-0.002;2023-07-31T10:30:55;3.00;;;1.40;;
46719;SDS011;32452;51.382;-0.002;2023-07-31T10:33:41;2.75;;;1.38;;
46719;SDS011;32452;51.382;-0.002;2023-07-31T10:36:27;2.60;;;1.20;;
46719;SDS011;32452;51.382;-0.002;2023-07-31T10:42:27;3.72;;;1.60;;
46719;SDS011;32452;51.382;-0.002;2023-07-31T10:45:31;2.83;;;1.23;;
46719;SDS011;32452;51.382;-0.002;2023-07-31T10:48:18;2.97;;;1.20;;
46719;SDS011;32452;51.382;-0.002;2023-07-31T10:51:10;2.03;;;0.90;;
46719;SDS011;32452;51.382;-0.002;2023-07-31T10:54:10;5.32;;;1.10;;
46719;SDS011;32452;51.382;-0.002;2023-07-31T10:57:00;2.67;;;1.40;;
46719;SDS011;32452;51.382;-0.002;2023-07-31T10:59:46;3.10;;;1.30;;
46719;SDS011;32452;51.382;-0.002;2023-07-31T11:02:32;2.78;;;1.30;;
46719;SDS011;32452;51.382;-0.002;2023-07-31T11:05:18;3.85;;;1.30;;
46719;SDS011;32452;51.382;-0.002;2023-07-31T11:08:11;2.95;;;1.17;;
46719;SDS011;32452;51.382;-0.002;2023-07-31T11:11:17;5.70;;;1.20;;
46719;SDS011;32452;51.382;-0.002;2023-07-31T11:14:05;6.15;;;1.35;;
46719;SDS011;32452;51.382;-0.002;2023-07-31T11:16:53;4.47;;;1.20;;
46719;SDS011;32452;51.382;-0.002;2023-07-31T11:19:39;2.72;;;1.25;;
46719;SDS011;32452;51.382;-0.002;2023-07-31T11:22:25;2.95;;;1.15;;
46719;SDS011;32452;51.382;-0.002;2023-07-31T11:25:11;4.13;;;1.52;;
46719;SDS011;32452;51.382;-0.002;2023-07-31T11:28:06;2.22;;;0.93;;
46719;SDS011;32452;51.382;-0.002;2023-07-31T11:30:54;2.78;;;1.35;;
46719;SDS011;32452;51.382;-0.002;2023-07-31T11:33:41;5.28;;;1.27;;
46719;SDS011;32452;51.382;-0.002;2023-07-31T11:36:26;5.03;;;1.55;;
46719;SDS011;32452;51.382;-0.002;2023-07-31T11:39:12;4.80;;;1.42;;
46719;SDS011;32452;51.382;-0.002;2023-07-31T11:42:01;5.50;;;1.85;;
46719;SDS011;32452;51.382;-0.002;2023-07-31T11:44:46;6.28;;;1.40;;
46719;SDS011;32452;51.382;-0.002;2023-07-31T11:47:33;4.07;;;2.03;;
46719;SDS011;32452;51.382;-0.002;2023-07-31T11:50:20;6.75;;;2.03;;
46719;SDS011;32452;51.382;-0.002;2023-07-31T11:53:06;4.20;;;1.67;;
46719;SDS011;32452;51.382;-0.002;2023-07-31T11:55:54;5.70;;;1.90;;
46719;SDS011;32452;51.382;-0.002;2023-07-31T11:58:40;4.90;;;1.90;;
46719;SDS011;32452;51.382;-0.002;2023-07-31T12:01:28;4.75;;;1.88;;
46719;SDS011;32452;51.382;-0.002;2023-07-31T12:04:14;6.55;;;1.92;;
46719;SDS011;32452;51.382;-0.002;2023-07-31T12:07:00;6.72;;;1.88;;
46719;SDS011;32452;51.382;-0.002;2023-07-31T12:09:55;9.07;;;1.90;;
46719;SDS011;32452;51.382;-0.002;2023-07-31T12:12:41;4.78;;;2.15;;
46719;SDS011;32452;51.382;-0.002;2023-07-31T12:15:34;5.32;;;1.90;;
46719;SDS011;32452;51.382;-0.002;2023-07-31T12:18:21;7.15;;;2.40;;
46719;SDS011;32452;51.382;-0.002;2023-07-31T12:21:08;6.32;;;2.00;;
46719;SDS011;32452;51.382;-0.002;2023-07-31T12:23:57;6.35;;;2.03;;
46719;SDS011;32452;51.382;-0.002;2023-07-31T12:26:48;5.15;;;1.80;;
46719;SDS011;32452;51.382;-0.002;2023-07-31T12:29:34;8.52;;;1.50;;
46719;SDS011;32452;51.382;-0.002;2023-07-31T12:32:25;3.88;;;1.80;;
46719;SDS011;32452;51.382;-0.002;2023-07-31T12:35:13;6.53;;;2.22;;
46719;SDS011;32452;51.382;-0.002;2023-07-31T12:38:00;7.57;;;1.95;;
46719;SDS011;32452;51.382;-0.002;2023-07-31T12:40:47;5.95;;;1.80;;
46719;SDS011;32452;51.382;-0.002;2023-07-31T12:43:36;5.78;;;2.10;;
46719;SDS011;32452;51.382;-0.002;2023-07-31T12:46:23;3.70;;;1.85;;
46719;SDS011;32452;51.382;-0.002;2023-07-31T12:49:08;3.97;;;1.58;;
46719;SDS011;32452;51.382;-0.002;2023-07-31T12:51:54;5.18;;;2.10;;
46719;SDS011;32452;51.382;-0.002;2023-07-31T12:54:39;3.88;;;1.83;;
46719;SDS011;32452;51.382;-0.002;2023-07-31T12:57:25;6.95;;;2.15;;
46719;SDS011;32452;51.382;-0.002;2023-07-31T13:00:11;3.90;;;1.77;;
46719;SDS011;32452;51.382;-0.002;2023-07-31T13:03:23;5.70;;;1.85;;
46719;SDS011;32452;51.382;-0.002;2023-07-31T13:06:09;8.20;;;2.13;;
46719;SDS011;32452;51.382;-0.002;2023-07-31T13:08:55;5.75;;;1.75;;
46719;SDS011;32452;51.382;-0.002;2023-07-31T13:11:41;7.82;;;2.65;;
46719;SDS011;32452;51.382;-0.002;2023-07-31T13:14:27;8.80;;;3.00;;
46719;SDS011;32452;51.382;-0.002;2023-07-31T13:17:13;7.45;;;2.10;;
46719;SDS011;32452;51.382;-0.002;2023-07-31T13:19:59;9.73;;;2.80;;
46719;SDS011;32452;51.382;-0.002;2023-07-31T13:22:45;10.98;;;2.80;;
46719;SDS011;32452;51.382;-0.002;2023-07-31T13:25:31;9.45;;;3.70;;
46719;SDS011;32452;51.382;-0.002;2023-07-31T13:28:16;6.78;;;2.63;;
46719;SDS011;32452;51.382;-0.002;2023-07-31T13:31:02;11.60;;;2.80;;
46719;SDS011;32452;51.382;-0.002;2023-07-31T13:33:48;10.27;;;2.95;;
46719;SDS011;32452;51.382;-0.002;2023-07-31T13:36:33;13.77;;;3.38;;
46719;SDS011;32452;51.382;-0.002;2023-07-31T13:39:19;9.60;;;3.20;;
46719;SDS011;32452;51.382;-0.002;2023-07-31T13:42:05;8.43;;;3.35;;
46719;SDS011;32452;51.382;-0.002;2023-07-31T13:44:53;6.68;;;2.80;;
46719;SDS011;32452;51.382;-0.002;2023-07-31T13:47:38;11.65;;;3.53;;
46719;SDS011;32452;51.382;-0.002;2023-07-31T13:50:24;13.63;;;3.92;;
46719;SDS011;32452;51.382;-0.002;2023-07-31T13:53:10;10.55;;;3.38;;
46719;SDS011;32452;51.382;-0.002;2023-07-31T13:55:55;11.90;;;4.40;;
46719;SDS011;32452;51.382;-0.002;2023-07-31T13:58:41;11.82;;;3.70;;
46719;SDS011;32452;51.382;-0.002;2023-07-31T14:01:27;13.45;;;4.00;;
46719;SDS011;32452;51.382;-0.002;2023-07-31T14:04:13;13.93;;;4.10;;
46719;SDS011;32452;51.382;-0.002;2023-07-31T14:06:59;11.77;;;3.15;;
46719;SDS011;32452;51.382;-0.002;2023-07-31T14:09:44;11.57;;;4.40;;
46719;SDS011;32452;51.382;-0.002;2023-07-31T14:12:30;13.13;;;4.07;;
46719;SDS011;32452;51.382;-0.002;2023-07-31T14:15:27;8.68;;;3.90;;
46719;SDS011;32452;51.382;-0.002;2023-07-31T14:18:13;12.48;;;4.40;;
46719;SDS011;32452;51.382;-0.002;2023-07-31T14:20:59;13.23;;;4.32;;
46719;SDS011;32452;51.382;-0.002;2023-07-31T14:23:45;11.60;;;3.67;;
46719;SDS011;32452;51.382;-0.002;2023-07-31T14:26:31;12.30;;;4.32;;
46719;SDS011;32452;51.382;-0.002;2023-07-31T14:29:17;10.82;;;4.15;;
46719;SDS011;32452;51.382;-0.002;2023-07-31T14:32:02;14.50;;;4.50;;
46719;SDS011;32452;51.382;-0.002;2023-07-31T14:34:48;14.73;;;4.90;;
46719;SDS011;32452;51.382;-0.002;2023-07-31T14:37:40;12.27;;;4.38;;
46719;SDS011;32452;51.382;-0.002;2023-07-31T14:40:27;11.20;;;4.20;;
46719;SDS011;32452;51.382;-0.002;2023-07-31T14:43:13;7.40;;;3.35;;
46719;SDS011;32452;51.382;-0.002;2023-07-31T14:45:58;10.00;;;4.07;;
46719;SDS011;32452;51.382;-0.002;2023-07-31T14:48:44;10.60;;;3.42;;
46719;SDS011;32452;51.382;-0.002;2023-07-31T14:51:30;12.20;;;4.78;;
46719;SDS011;32452;51.382;-0.002;2023-07-31T14:54:16;8.98;;;3.13;;
46719;SDS011;32452;51.382;-0.002;2023-07-31T14:57:01;13.73;;;3.88;;
46719;SDS011;32452;51.382;-0.002;2023-07-31T14:59:47;10.73;;;5.07;;
46719;SDS011;32452;51.382;-0.002;2023-07-31T15:02:34;11.85;;;4.00;;
46719;SDS011;32452;51.382;-0.002;2023-07-31T15:05:20;12.43;;;4.15;;
46719;SDS011;32452;51.382;-0.002;2023-07-31T15:08:06;13.15;;;4.35;;
46719;SDS011;32452;51.382;-0.002;2023-07-31T15:10:54;15.40;;;4.57;;
46719;SDS011;32452;51.382;-0.002;2023-07-31T15:13:42;11.88;;;3.78;;
46719;SDS011;32452;51.382;-0.002;2023-07-31T15:16:28;11.77;;;3.92;;
46719;SDS011;32452;51.382;-0.002;2023-07-31T15:19:16;11.30;;;3.28;;
46719;SDS011;32452;51.382;-0.002;2023-07-31T15:22:02;12.73;;;4.03;;
46719;SDS011;32452;51.382;-0.002;2023-07-31T15:24:48;12.63;;;4.18;;
46719;SDS011;32452;51.382;-0.002;2023-07-31T15:27:34;11.38;;;4.45;;
46719;SDS011;32452;51.382;-0.002;2023-07-31T15:30:19;11.55;;;3.53;;
46719;SDS011;32452;51.382;-0.002;2023-07-31T15:33:05;15.43;;;3.95;;
46719;SDS011;32452;51.382;-0.002;2023-07-31T15:35:51;11.70;;;4.22;;
46719;SDS011;32452;51.382;-0.002;2023-07-31T15:38:40;10.57;;;3.80;;
46719;SDS011;32452;51.382;-0.002;2023-07-31T15:41:25;9.50;;;4.03;;
46719;SDS011;32452;51.382;-0.002;2023-07-31T15:44:11;10.10;;;3.05;;
46719;SDS011;32452;51.382;-0.002;2023-07-31T15:46:56;12.25;;;3.95;;
46719;SDS011;32452;51.382;-0.002;2023-07-31T15:49:42;10.15;;;4.05;;
46719;SDS011;32452;51.382;-0.002;2023-07-31T15:52:28;12.73;;;3.85;;
46719;SDS011;32452;51.382;-0.002;2023-07-31T15:55:14;14.57;;;4.70;;
46719;SDS011;32452;51.382;-0.002;2023-07-31T15:57:59;9.50;;;3.97;;
46719;SDS011;32452;51.382;-0.002;2023-07-31T16:00:45;9.63;;;3.20;;
46719;SDS011;32452;51.382;-0.002;2023-07-31T16:03:32;10.93;;;3.90;;
46719;SDS011;32452;51.382;-0.002;2023-07-31T16:06:18;8.13;;;3.28;;
46719;SDS011;32452;51.382;-0.002;2023-07-31T16:09:03;9.98;;;4.13;;
46719;SDS011;32452;51.382;-0.002;2023-07-31T16:11:49;8.55;;;3.03;;
46719;SDS011;32452;51.382;-0.002;2023-07-31T16:14:35;9.55;;;3.65;;
46719;SDS011;32452;51.382;-0.002;2023-07-31T16:17:21;10.32;;;3.35;;
46719;SDS011;32452;51.382;-0.002;2023-07-31T16:20:06;6.38;;;3.30;;
46719;SDS011;32452;51.382;-0.002;2023-07-31T16:22:53;8.38;;;3.20;;
46719;SDS011;32452;51.382;-0.002;2023-07-31T16:25:39;10.68;;;4.20;;
46719;SDS011;32452;51.382;-0.002;2023-07-31T16:28:25;7.63;;;3.03;;
46719;SDS011;32452;51.382;-0.002;2023-07-31T16:31:10;7.53;;;3.40;;
46719;SDS011;32452;51.382;-0.002;2023-07-31T16:33:56;7.93;;;2.50;;
46719;SDS011;32452;51.382;-0.002;2023-07-31T16:36:43;6.85;;;2.47;;